Time;durP1;ratioP1;P1;durP2;ratioP2;P2;SDS_P1;SDS_P2;PMS_P1;PMS_P2;Temp;Humidity;BMP_temperature;BMP_pressure;BME280_temperature;BME280_humidity;BME280_pressure;Samples;Min_cycle;Max_cycle;Signal;HPM_P1;HPM_P2
2022/07/23 00:00:36;;;;;;;2.75;1.25;;;;;;;;;;5042934;28;20713;-36
2022/07/23 00:03:02;;;;;;;3.38;1.13;;;;;;;;;;5049985;28;20675;-33
2022/07/23 00:05:29;;;;;;;2.42;1.45;;;;;;;;;;5041404;28;20636;-29
2022/07/23 00:07:55;;;;;;;1.80;1.20;;;;;;;;;;5043410;28;20239;-34
2022/07/23 00:10:21;;;;;;;3.17;1.33;;;;;;;;;;5042857;28;20202;-32
2022/07/23 00:12:47;;;;;;;2.15;1.45;;;;;;;;;;5043584;28;20281;-32
2022/07/23 00:15:13;;;;;;;4.93;2.00;;;;;;;;;;5029867;28;20183;-43
2022/07/23 00:17:39;;;;;;;2.75;1.40;;;;;;;;;;5028349;28;20183;-25
2022/07/23 00:20:05;;;;;;;2.78;1.40;;;;;;;;;;5033754;28;20190;-36
2022/07/23 00:22:32;;;;;;;2.22;1.35;;;;;;;;;;5041155;28;20179;-29
2022/07/23 00:24:58;;;;;;;2.92;1.40;;;;;;;;;;5012422;28;20195;-29
2022/07/23 00:27:24;;;;;;;5.00;1.70;;;;;;;;;;5039662;28;20277;-32
2022/07/23 00:29:50;;;;;;;4.18;1.63;;;;;;;;;;5037777;28;20207;-28
2022/07/23 00:32:16;;;;;;;3.00;1.52;;;;;;;;;;5036442;28;20179;-29
2022/07/23 00:34:42;;;;;;;2.53;1.77;;;;;;;;;;5036699;28;20223;-42
2022/07/23 00:37:09;;;;;;;3.00;1.50;;;;;;;;;;5031319;28;20192;-30
2022/07/23 00:39:35;;;;;;;3.50;1.80;;;;;;;;;;5037220;28;20187;-29
2022/07/23 00:42:01;;;;;;;2.60;1.60;;;;;;;;;;5045398;28;20193;-31
2022/07/23 00:44:28;;;;;;;3.03;1.55;;;;;;;;;;5040158;28;20564;-25
2022/07/23 00:46:58;;;;;;;2.88;1.60;;;;;;;;;;5042956;28;20215;-31
2022/07/23 00:49:26;;;;;;;4.35;1.75;;;;;;;;;;5047187;28;20183;-27
2022/07/23 00:51:52;;;;;;;2.78;1.67;;;;;;;;;;5031077;28;20211;-41
2022/07/23 00:54:19;;;;;;;2.42;1.60;;;;;;;;;;5038946;28;20179;-33
2022/07/23 00:56:46;;;;;;;2.97;1.50;;;;;;;;;;5047004;28;20240;-28
2022/07/23 00:59:13;;;;;;;4.30;1.75;;;;;;;;;;5047248;28;20176;-27
2022/07/23 01:01:40;;;;;;;3.65;1.60;;;;;;;;;;5047409;28;20194;-29
2022/07/23 01:04:07;;;;;;;3.15;1.65;;;;;;;;;;5039110;28;20188;-35
2022/07/23 01:06:37;;;;;;;2.85;1.20;;;;;;;;;;5038980;28;20278;-25
2022/07/23 01:09:05;;;;;;;4.00;1.67;;;;;;;;;;5055123;28;20183;-33
2022/07/23 01:11:35;;;;;;;3.90;1.70;;;;;;;;;;5028307;28;20184;-29
2022/07/23 01:14:12;;;;;;;1.90;1.20;;;;;;;;;;5046007;28;20184;-34
2022/07/23 01:16:40;;;;;;;3.40;1.75;;;;;;;;;;5036925;28;20218;-33
2022/07/23 01:19:06;;;;;;;2.40;1.35;;;;;;;;;;5027350;28;20188;-35
2022/07/23 01:21:36;;;;;;;2.75;1.40;;;;;;;;;;5022316;28;20188;-31
2022/07/23 01:24:02;;;;;;;2.90;1.50;;;;;;;;;;5034576;28;20215;-27
2022/07/23 01:26:29;;;;;;;3.95;1.67;;;;;;;;;;5031264;28;20184;-28
2022/07/23 01:28:55;;;;;;;4.28;1.70;;;;;;;;;;5030839;28;20183;-33
2022/07/23 01:31:22;;;;;;;2.50;1.48;;;;;;;;;;5029555;28;20192;-32
2022/07/23 01:33:49;;;;;;;3.33;1.67;;;;;;;;;;5036126;28;20223;-34
2022/07/23 01:36:15;;;;;;;3.00;1.50;;;;;;;;;;5032730;28;20200;-33
2022/07/23 01:38:42;;;;;;;3.15;1.60;;;;;;;;;;5036312;28;20191;-29
2022/07/23 01:41:08;;;;;;;1.92;1.27;;;;;;;;;;5041096;28;20195;-28
2022/07/23 01:43:34;;;;;;;2.47;1.60;;;;;;;;;;5052880;28;20176;-30
2022/07/23 01:46:00;;;;;;;2.63;1.38;;;;;;;;;;5044712;28;20218;-27
2022/07/23 01:48:31;;;;;;;4.35;1.60;;;;;;;;;;5043237;28;20669;-32
2022/07/23 01:51:15;;;;;;;1.90;1.20;;;;;;;;;;5035631;28;20192;-29
2022/07/23 01:53:43;;;;;;;3.83;1.35;;;;;;;;;;5052128;28;20187;-28
2022/07/23 01:56:09;;;;;;;2.38;1.45;;;;;;;;;;5040177;28;20238;-31
2022/07/23 01:58:35;;;;;;;4.22;1.60;;;;;;;;;;5048722;28;20187;-29
2022/07/23 02:01:02;;;;;;;2.45;1.45;;;;;;;;;;5032281;28;20187;-27
2022/07/23 02:03:28;;;;;;;1.65;1.30;;;;;;;;;;5047278;28;20200;-29
2022/07/23 02:05:54;;;;;;;2.70;1.50;;;;;;;;;;5028103;28;20279;-26
2022/07/23 02:08:21;;;;;;;2.55;1.30;;;;;;;;;;5040061;28;20226;-31
2022/07/23 02:10:48;;;;;;;2.50;1.35;;;;;;;;;;5024343;28;20275;-32
2022/07/23 02:13:14;;;;;;;1.88;1.15;;;;;;;;;;5031275;28;20281;-29
2022/07/23 02:15:40;;;;;;;4.50;1.70;;;;;;;;;;5034934;28;20324;-30
2022/07/23 02:18:08;;;;;;;2.75;1.48;;;;;;;;;;5051856;28;20198;-31
2022/07/23 02:20:34;;;;;;;2.00;1.27;;;;;;;;;;5045123;28;20196;-27
2022/07/23 02:23:00;;;;;;;3.28;1.27;;;;;;;;;;5048080;28;20183;-29
2022/07/23 02:25:26;;;;;;;3.28;1.40;;;;;;;;;;5041623;28;20176;-36
2022/07/23 02:27:58;;;;;;;1.63;1.20;;;;;;;;;;5035972;28;20229;-30
2022/07/23 02:30:24;;;;;;;2.03;1.15;;;;;;;;;;5031276;28;20212;-31
2022/07/23 02:32:51;;;;;;;3.38;1.40;;;;;;;;;;5035337;28;20175;-29
2022/07/23 02:35:17;;;;;;;2.22;1.30;;;;;;;;;;5042482;28;20184;-36
2022/07/23 02:37:43;;;;;;;6.35;1.45;;;;;;;;;;5025821;28;20718;-33
2022/07/23 02:40:11;;;;;;;2.13;1.20;;;;;;;;;;5021650;28;20276;-37
2022/07/23 02:42:39;;;;;;;3.45;1.40;;;;;;;;;;5045253;28;20240;-38
2022/07/23 02:45:05;;;;;;;2.15;1.35;;;;;;;;;;5047454;28;20463;-44
2022/07/23 02:47:32;;;;;;;1.98;1.25;;;;;;;;;;5041302;28;20219;-38
2022/07/23 02:50:00;;;;;;;2.30;1.15;;;;;;;;;;5042716;28;20582;-38
2022/07/23 02:52:28;;;;;;;1.67;1.10;;;;;;;;;;5031122;28;20179;-36
2022/07/23 02:54:54;;;;;;;5.35;1.20;;;;;;;;;;5049675;28;20179;-38
2022/07/23 02:57:20;;;;;;;2.72;1.30;;;;;;;;;;5031351;28;20628;-43
2022/07/23 02:59:46;;;;;;;2.50;1.35;;;;;;;;;;5046191;28;20186;-38
2022/07/23 03:02:12;;;;;;;2.47;1.40;;;;;;;;;;5036010;28;20175;-37
2022/07/23 03:04:40;;;;;;;2.58;1.70;;;;;;;;;;5012791;28;20216;-40
2022/07/23 03:07:07;;;;;;;1.90;1.35;;;;;;;;;;5034158;28;20238;-38
2022/07/23 03:09:33;;;;;;;3.25;1.42;;;;;;;;;;5045748;28;20195;-39
2022/07/23 03:11:59;;;;;;;2.45;1.30;;;;;;;;;;5043639;28;20184;-36
2022/07/23 03:14:25;;;;;;;2.97;1.50;;;;;;;;;;5051594;28;20179;-38
2022/07/23 03:16:53;;;;;;;2.97;1.50;;;;;;;;;;5037527;28;20187;-37
2022/07/23 03:19:20;;;;;;;1.75;1.20;;;;;;;;;;5043450;28;20181;-38
2022/07/23 03:21:46;;;;;;;3.33;1.30;;;;;;;;;;5034420;28;20187;-38
2022/07/23 03:24:13;;;;;;;2.25;1.27;;;;;;;;;;5051815;28;20187;-35
2022/07/23 03:26:39;;;;;;;1.58;1.20;;;;;;;;;;5014922;28;20193;-33
2022/07/23 03:29:06;;;;;;;3.67;1.48;;;;;;;;;;5050630;28;20184;-37
2022/07/23 03:31:32;;;;;;;3.13;1.40;;;;;;;;;;5019450;28;20264;-37
2022/07/23 03:33:59;;;;;;;1.90;1.33;;;;;;;;;;5052544;28;20175;-34
2022/07/23 03:36:27;;;;;;;4.03;1.45;;;;;;;;;;5018496;28;20196;-34
2022/07/23 03:38:55;;;;;;;3.92;1.52;;;;;;;;;;5038351;28;20286;-33
2022/07/23 03:41:21;;;;;;;2.22;1.70;;;;;;;;;;5038241;28;20257;-36
2022/07/23 03:43:47;;;;;;;2.85;1.50;;;;;;;;;;5027185;28;20179;-37
2022/07/23 03:46:13;;;;;;;3.22;1.35;;;;;;;;;;5025509;28;20180;-41
2022/07/23 03:48:40;;;;;;;3.60;1.60;;;;;;;;;;5033709;28;20207;-38
2022/07/23 03:51:06;;;;;;;2.90;1.50;;;;;;;;;;5028148;28;20344;-37
2022/07/23 03:53:32;;;;;;;3.28;1.40;;;;;;;;;;5027342;28;20200;-36
2022/07/23 03:55:58;;;;;;;3.55;1.63;;;;;;;;;;5010621;28;20195;-34
2022/07/23 03:58:25;;;;;;;2.08;1.60;;;;;;;;;;5041047;28;20187;-36
2022/07/23 04:00:51;;;;;;;3.75;1.55;;;;;;;;;;5029801;28;20188;-35
2022/07/23 04:03:18;;;;;;;2.88;1.60;;;;;;;;;;5048721;28;20207;-37
2022/07/23 04:05:44;;;;;;;5.07;2.13;;;;;;;;;;5046862;28;20197;-36
2022/07/23 04:08:13;;;;;;;4.28;2.47;;;;;;;;;;5044218;28;20658;-37
2022/07/23 04:10:44;;;;;;;3.88;2.47;;;;;;;;;;5015279;28;20563;-33
2022/07/23 04:13:11;;;;;;;4.15;2.50;;;;;;;;;;5025117;28;20184;-35
2022/07/23 04:15:37;;;;;;;4.35;2.90;;;;;;;;;;5035588;28;20191;-33
2022/07/23 04:18:05;;;;;;;5.85;3.17;;;;;;;;;;5029983;28;20195;-33
2022/07/23 04:20:41;;;;;;;4.15;2.47;;;;;;;;;;5011915;28;20200;-36
2022/07/23 04:23:12;;;;;;;13.90;2.80;;;;;;;;;;5037338;28;20211;-37
2022/07/23 04:25:39;;;;;;;6.72;2.60;;;;;;;;;;5033645;28;20433;-39
2022/07/23 04:28:05;;;;;;;9.05;2.42;;;;;;;;;;5038371;28;20303;-30
2022/07/23 04:36:27;;;;;;;6.32;3.97;;;;;;;;;;5060587;28;20531;-52
2022/07/23 04:38:55;;;;;;;5.57;3.63;;;;;;;;;;5046994;28;20659;-53
2022/07/23 04:41:21;;;;;;;7.13;3.75;;;;;;;;;;5062913;28;20193;-52
2022/07/23 04:43:47;;;;;;;8.80;4.07;;;;;;;;;;5057000;28;20179;-52
2022/07/23 04:46:14;;;;;;;5.97;3.60;;;;;;;;;;5062569;28;20183;-54
2022/07/23 04:48:46;;;;;;;8.90;4.00;;;;;;;;;;5066348;28;20631;-50
2022/07/23 04:51:12;;;;;;;10.65;4.90;;;;;;;;;;5061550;28;20237;-53
2022/07/23 04:53:39;;;;;;;5.93;4.03;;;;;;;;;;5062301;28;20179;-53
2022/07/23 04:56:05;;;;;;;5.18;4.03;;;;;;;;;;5047322;28;20219;-51
2022/07/23 04:58:33;;;;;;;6.95;4.40;;;;;;;;;;5063415;28;20250;-50
2022/07/23 05:00:59;;;;;;;7.68;4.07;;;;;;;;;;5046630;28;20187;-52
2022/07/23 05:03:26;;;;;;;9.88;5.03;;;;;;;;;;5046340;28;20183;-52
2022/07/23 05:05:53;;;;;;;6.82;4.47;;;;;;;;;;5062215;28;20195;-52
2022/07/23 05:08:19;;;;;;;7.47;4.35;;;;;;;;;;5063363;28;20569;-50
2022/07/23 05:10:49;;;;;;;8.52;4.20;;;;;;;;;;5060766;28;20252;-49
2022/07/23 05:13:17;;;;;;;6.95;4.25;;;;;;;;;;5064594;28;20183;-51
2022/07/23 05:15:44;;;;;;;10.10;4.72;;;;;;;;;;5062697;28;20218;-54
2022/07/23 05:18:10;;;;;;;7.85;4.35;;;;;;;;;;5062408;28;20187;-52
2022/07/23 05:20:37;;;;;;;7.40;3.83;;;;;;;;;;5060961;28;20268;-50
2022/07/23 05:23:03;;;;;;;6.07;3.38;;;;;;;;;;5064010;28;20190;-52
2022/07/23 05:25:30;;;;;;;8.52;3.97;;;;;;;;;;5058591;28;20187;-52
2022/07/23 05:27:56;;;;;;;8.95;4.35;;;;;;;;;;5064557;28;20184;-50
2022/07/23 05:30:23;;;;;;;8.13;3.80;;;;;;;;;;5060270;28;20496;-53
2022/07/23 05:32:53;;;;;;;5.03;3.33;;;;;;;;;;5062109;28;20188;-47
2022/07/23 05:35:19;;;;;;;8.95;3.75;;;;;;;;;;5060955;28;20358;-53
2022/07/23 05:38:18;;;;;;;10.32;3.67;;;;;;;;;;5060239;28;20210;-53
2022/07/23 05:40:44;;;;;;;5.72;3.22;;;;;;;;;;5061269;28;20180;-51
2022/07/23 05:43:11;;;;;;;7.25;3.70;;;;;;;;;;5063428;28;20184;-54
2022/07/23 05:45:37;;;;;;;9.88;3.60;;;;;;;;;;5043929;28;20279;-51
2022/07/23 05:48:04;;;;;;;9.45;3.40;;;;;;;;;;5034349;28;20175;-52
2022/07/23 05:50:41;;;;;;;5.47;3.33;;;;;;;;;;5027968;28;20187;-51
2022/07/23 05:53:20;;;;;;;4.75;3.03;;;;;;;;;;5048004;28;20274;-50
2022/07/23 05:56:21;;;;;;;4.38;2.88;;;;;;;;;;5033348;28;20242;-49
2022/07/23 05:58:48;;;;;;;6.43;2.75;;;;;;;;;;5040920;28;20184;-52
2022/07/23 06:01:17;;;;;;;6.03;2.80;;;;;;;;;;5030386;28;20263;-51
2022/07/23 06:04:04;;;;;;;5.72;2.22;;;;;;;;;;5031151;28;20184;-49
2022/07/23 06:06:35;;;;;;;6.85;1.98;;;;;;;;;;5035339;28;20555;-51
2022/07/23 06:09:02;;;;;;;5.53;2.22;;;;;;;;;;5031151;28;20275;-49
2022/07/23 06:11:29;;;;;;;4.68;2.20;;;;;;;;;;5045431;28;20184;-54
2022/07/23 06:13:56;;;;;;;4.28;2.60;;;;;;;;;;5045074;28;20176;-55
2022/07/23 06:16:29;;;;;;;5.85;2.53;;;;;;;;;;5037007;28;20188;-51
2022/07/23 06:18:55;;;;;;;5.57;2.30;;;;;;;;;;5037964;28;20208;-50
2022/07/23 06:21:22;;;;;;;3.50;2.10;;;;;;;;;;5046463;28;20191;-48
2022/07/23 06:23:48;;;;;;;7.85;2.42;;;;;;;;;;5050190;28;20742;-47
2022/07/23 06:26:14;;;;;;;4.88;2.72;;;;;;;;;;5047181;28;20226;-52
2022/07/23 06:28:40;;;;;;;5.65;2.30;;;;;;;;;;5027135;28;20278;-52
2022/07/23 06:31:07;;;;;;;4.30;2.25;;;;;;;;;;5032204;28;20325;-51
2022/07/23 06:33:34;;;;;;;5.70;2.03;;;;;;;;;;5049756;28;20194;-48
2022/07/23 06:36:00;;;;;;;4.40;1.65;;;;;;;;;;5031406;28;20223;-51
2022/07/23 06:38:26;;;;;;;3.78;1.92;;;;;;;;;;5047293;28;20195;-51
2022/07/23 06:40:52;;;;;;;5.22;2.28;;;;;;;;;;5031464;28;20227;-48
2022/07/23 06:43:18;;;;;;;6.57;3.03;;;;;;;;;;5049649;28;20187;-60
2022/07/23 06:45:45;;;;;;;7.65;2.55;;;;;;;;;;5043527;28;20654;-61
2022/07/23 06:48:11;;;;;;;7.75;2.78;;;;;;;;;;5048355;28;20187;-61
2022/07/23 06:50:37;;;;;;;7.50;2.30;;;;;;;;;;5027273;28;20262;-64
2022/07/23 06:53:03;;;;;;;6.88;2.22;;;;;;;;;;5019410;28;20639;-63
2022/07/23 06:55:31;;;;;;;7.32;1.77;;;;;;;;;;5047523;28;20215;-64
2022/07/23 06:57:57;;;;;;;3.47;1.80;;;;;;;;;;5030569;28;20362;-62
2022/07/23 07:00:23;;;;;;;6.18;1.90;;;;;;;;;;5045002;28;20184;-62
2022/07/23 07:02:49;;;;;;;3.92;2.55;;;;;;;;;;5017130;28;20757;-61
2022/07/23 07:05:15;;;;;;;3.28;1.67;;;;;;;;;;5021602;28;20226;-62
2022/07/23 07:07:41;;;;;;;3.03;1.60;;;;;;;;;;5030885;28;20640;-61
2022/07/23 07:10:08;;;;;;;4.60;2.00;;;;;;;;;;5031714;28;20184;-61
2022/07/23 07:12:34;;;;;;;3.58;2.10;;;;;;;;;;5012217;28;20189;-62
2022/07/23 07:15:00;;;;;;;3.85;1.92;;;;;;;;;;5029768;28;20215;-62
2022/07/23 07:17:26;;;;;;;6.47;1.92;;;;;;;;;;5031579;28;20680;-62
2022/07/23 07:19:52;;;;;;;3.17;1.98;;;;;;;;;;5027044;28;20199;-62
2022/07/23 07:22:18;;;;;;;6.03;2.22;;;;;;;;;;5030157;28;20702;-61
2022/07/23 07:24:45;;;;;;;4.72;2.20;;;;;;;;;;5030325;28;20206;-62
2022/07/23 07:27:11;;;;;;;5.93;1.80;;;;;;;;;;5032251;28;20194;-61
2022/07/23 07:29:37;;;;;;;3.08;1.80;;;;;;;;;;5030476;28;20195;-62
2022/07/23 07:32:03;;;;;;;3.15;1.45;;;;;;;;;;5031157;28;20291;-62
2022/07/23 07:34:29;;;;;;;2.72;1.80;;;;;;;;;;5029392;28;20211;-62
2022/07/23 07:36:55;;;;;;;7.10;2.00;;;;;;;;;;5031396;28;20199;-62
2022/07/23 07:39:22;;;;;;;3.70;1.90;;;;;;;;;;5030134;28;20192;-61
2022/07/23 07:41:48;;;;;;;7.25;2.30;;;;;;;;;;5031163;28;20211;-62
2022/07/23 07:44:14;;;;;;;4.53;1.80;;;;;;;;;;5044627;28;20191;-61
2022/07/23 07:46:40;;;;;;;6.63;2.03;;;;;;;;;;5030361;28;20191;-61
2022/07/23 07:49:06;;;;;;;4.47;2.30;;;;;;;;;;5043818;28;20188;-61
2022/07/23 07:51:32;;;;;;;9.70;2.47;;;;;;;;;;5027308;28;20188;-61
2022/07/23 07:53:59;;;;;;;6.00;2.20;;;;;;;;;;5025867;28;20246;-61
2022/07/23 07:56:25;;;;;;;6.38;2.35;;;;;;;;;;5044149;28;20238;-61
2022/07/23 07:58:51;;;;;;;5.43;2.25;;;;;;;;;;5029798;28;20184;-62
2022/07/23 08:01:19;;;;;;;8.45;2.20;;;;;;;;;;5030331;28;20202;-61
2022/07/23 08:03:45;;;;;;;6.30;2.40;;;;;;;;;;5028818;28;20237;-62
2022/07/23 08:06:11;;;;;;;3.08;2.10;;;;;;;;;;5031291;28;20179;-62
2022/07/23 08:08:37;;;;;;;5.15;2.10;;;;;;;;;;5029442;28;20197;-63
2022/07/23 08:11:04;;;;;;;4.88;2.00;;;;;;;;;;5046438;28;20191;-62
2022/07/23 08:13:30;;;;;;;4.60;2.13;;;;;;;;;;5045216;28;20188;-61
2022/07/23 08:15:56;;;;;;;5.47;2.50;;;;;;;;;;5031129;28;20220;-61
2022/07/23 08:18:22;;;;;;;5.15;2.30;;;;;;;;;;5029346;28;20310;-62
2022/07/23 08:20:48;;;;;;;6.53;2.30;;;;;;;;;;5030511;28;20667;-61
2022/07/23 08:23:18;;;;;;;5.38;2.25;;;;;;;;;;5029980;28;20249;-63
2022/07/23 08:25:44;;;;;;;5.38;2.03;;;;;;;;;;5047394;28;20291;-64
2022/07/23 08:28:11;;;;;;;6.43;1.95;;;;;;;;;;5028786;28;20175;-63
2022/07/23 08:30:38;;;;;;;4.18;2.10;;;;;;;;;;5031039;28;20192;-62
2022/07/23 08:33:11;;;;;;;3.38;1.88;;;;;;;;;;5028202;28;20189;-62
2022/07/23 08:35:38;;;;;;;8.90;2.35;;;;;;;;;;5045995;28;20235;-61
2022/07/23 08:38:06;;;;;;;8.68;2.10;;;;;;;;;;5029073;28;20192;-61
2022/07/23 08:40:33;;;;;;;5.18;2.20;;;;;;;;;;5041866;28;20270;-62
2022/07/23 08:43:00;;;;;;;5.20;2.30;;;;;;;;;;5029968;28;20184;-62
2022/07/23 08:45:27;;;;;;;3.97;2.30;;;;;;;;;;5044474;28;20183;-64
2022/07/23 08:47:58;;;;;;;2.88;2.00;;;;;;;;;;5027781;28;20188;-62
2022/07/23 08:50:25;;;;;;;3.97;1.90;;;;;;;;;;5043946;28;20260;-62
2022/07/23 08:52:52;;;;;;;3.80;1.98;;;;;;;;;;5026753;28;20576;-61
2022/07/23 08:55:19;;;;;;;5.95;2.30;;;;;;;;;;5027416;28;20238;-62
2022/07/23 08:57:48;;;;;;;5.03;1.98;;;;;;;;;;5028787;28;20188;-61
2022/07/23 09:00:14;;;;;;;3.80;2.22;;;;;;;;;;5030489;28;20188;-62
2022/07/23 09:02:42;;;;;;;5.40;2.47;;;;;;;;;;5029769;28;20188;-62
2022/07/23 09:05:10;;;;;;;3.90;1.92;;;;;;;;;;5032802;28;20191;-62
2022/07/23 09:07:36;;;;;;;4.70;2.03;;;;;;;;;;5028861;28;20267;-62
2022/07/23 09:10:10;;;;;;;6.00;2.10;;;;;;;;;;5045933;28;20188;-62
2022/07/23 09:12:36;;;;;;;6.18;3.05;;;;;;;;;;5030009;28;20192;-62
2022/07/23 09:15:07;;;;;;;3.55;1.90;;;;;;;;;;5030284;28;20207;-62
2022/07/23 09:17:41;;;;;;;4.47;2.00;;;;;;;;;;5027998;28;20567;-62
2022/07/23 09:20:12;;;;;;;2.85;1.75;;;;;;;;;;5045226;28;20184;-62
2022/07/23 09:22:38;;;;;;;3.80;1.70;;;;;;;;;;5031860;28;20262;-62
2022/07/23 09:25:04;;;;;;;7.60;2.15;;;;;;;;;;5033205;28;20262;-63
2022/07/23 09:27:49;;;;;;;3.90;1.90;;;;;;;;;;5033216;28;20199;-63
2022/07/23 09:30:15;;;;;;;3.35;1.67;;;;;;;;;;5049534;28;20541;-63
2022/07/23 09:32:42;;;;;;;4.53;2.05;;;;;;;;;;5032102;28;20214;-62
2022/07/23 09:35:08;;;;;;;3.53;1.90;;;;;;;;;;5033572;28;20227;-63
2022/07/23 09:37:34;;;;;;;6.13;2.55;;;;;;;;;;5033073;28;20270;-60
2022/07/23 09:40:08;;;;;;;9.73;2.20;;;;;;;;;;5040170;28;20233;-62
2022/07/23 09:42:35;;;;;;;4.75;1.80;;;;;;;;;;5034892;28;20560;-60
2022/07/23 09:45:01;;;;;;;4.57;2.17;;;;;;;;;;5033212;28;20242;-61
2022/07/23 09:47:29;;;;;;;7.28;2.28;;;;;;;;;;5033884;28;20188;-61
2022/07/23 09:50:04;;;;;;;5.28;2.13;;;;;;;;;;5031934;28;20172;-62
2022/07/23 09:52:32;;;;;;;6.90;2.30;;;;;;;;;;5049105;28;20190;-62
2022/07/23 09:55:00;;;;;;;3.40;2.13;;;;;;;;;;5030681;28;20206;-61
2022/07/23 09:57:26;;;;;;;6.72;2.67;;;;;;;;;;5033690;28;20188;-61
2022/07/23 09:59:53;;;;;;;5.30;2.10;;;;;;;;;;5031722;28;20188;-61
2022/07/23 10:02:20;;;;;;;4.13;2.42;;;;;;;;;;5048906;28;20263;-61
2022/07/23 10:05:08;;;;;;;4.28;2.25;;;;;;;;;;5044433;28;20200;-60
2022/07/23 10:07:55;;;;;;;5.85;2.30;;;;;;;;;;5030942;28;20199;-60
2022/07/23 10:10:43;;;;;;;6.82;2.30;;;;;;;;;;5032684;28;20318;-60
2022/07/23 10:16:15;;;;;;;4.30;2.63;;;;;;;;;;5049152;28;20241;-61
2022/07/23 10:18:41;;;;;;;3.92;2.10;;;;;;;;;;5031551;28;20190;-61
2022/07/23 10:21:08;;;;;;;8.38;2.40;;;;;;;;;;5025221;28;20180;-61
2022/07/23 10:23:37;;;;;;;5.18;2.05;;;;;;;;;;5031799;28;20184;-61
2022/07/23 10:26:11;;;;;;;4.57;2.10;;;;;;;;;;5033313;28;20180;-61
2022/07/23 10:28:47;;;;;;;7.22;2.13;;;;;;;;;;5032099;28;20651;-61
2022/07/23 10:31:32;;;;;;;4.75;2.15;;;;;;;;;;5033499;28;20206;-62
2022/07/23 10:34:13;;;;;;;4.28;1.88;;;;;;;;;;5030846;28;20644;-61
2022/07/23 10:36:48;;;;;;;4.80;2.40;;;;;;;;;;5032930;28;20316;-60
2022/07/23 10:39:18;;;;;;;2.53;1.70;;;;;;;;;;5033094;28;20179;-61
2022/07/23 10:41:44;;;;;;;3.22;1.70;;;;;;;;;;5040122;28;20199;-61
2022/07/23 10:44:15;;;;;;;12.07;2.35;;;;;;;;;;5024615;28;20203;-60
2022/07/23 10:47:21;;;;;;;7.97;2.33;;;;;;;;;;5048384;28;20183;-61
2022/07/23 10:49:46;;;;;;;4.35;1.73;;;;;;;;;;5030230;28;20191;-61
2022/07/23 10:52:20;;;;;;;6.65;2.03;;;;;;;;;;5031258;28;20187;-61
2022/07/23 10:54:57;;;;;;;2.97;1.70;;;;;;;;;;5030744;28;20261;-62
2022/07/23 10:57:27;;;;;;;4.78;1.73;;;;;;;;;;5033311;28;20187;-61
2022/07/23 10:59:59;;;;;;;2.55;1.60;;;;;;;;;;5031249;28;20282;-62
2022/07/23 11:02:26;;;;;;;3.05;1.58;;;;;;;;;;5031112;28;20759;-60
2022/07/23 11:04:53;;;;;;;3.63;1.65;;;;;;;;;;5031519;28;20176;-62
2022/07/23 11:07:19;;;;;;;2.83;1.70;;;;;;;;;;5031152;28;20187;-63
2022/07/23 11:09:46;;;;;;;2.63;1.70;;;;;;;;;;5031223;28;20258;-62
2022/07/23 11:12:15;;;;;;;3.70;1.52;;;;;;;;;;5026706;28;20279;-62
2022/07/23 11:15:00;;;;;;;2.83;1.10;;;;;;;;;;5017461;28;20683;-66
2022/07/23 11:17:26;;;;;;;4.30;1.40;;;;;;;;;;5017008;28;20318;-63
2022/07/23 11:20:08;;;;;;;4.50;1.20;;;;;;;;;;5033310;28;20184;-65
2022/07/23 11:22:43;;;;;;;5.93;2.50;;;;;;;;;;5018770;28;20282;-61
2022/07/23 11:25:14;;;;;;;3.50;1.58;;;;;;;;;;5018077;28;20222;-63
2022/07/23 11:27:44;;;;;;;4.65;1.10;;;;;;;;;;5017640;28;20194;-61
2022/07/23 11:30:11;;;;;;;4.20;1.50;;;;;;;;;;5018624;28;20646;-63
2022/07/23 11:32:39;;;;;;;3.00;1.20;;;;;;;;;;5032689;28;20881;-64
2022/07/23 11:35:27;;;;;;;2.88;1.30;;;;;;;;;;5033190;28;20757;-63
2022/07/23 11:37:58;;;;;;;2.33;1.10;;;;;;;;;;5031572;28;20267;-62
2022/07/23 11:40:25;;;;;;;2.95;1.30;;;;;;;;;;5019110;28;20184;-61
2022/07/23 11:42:52;;;;;;;3.08;1.02;;;;;;;;;;5014486;28;20974;-62
2022/07/23 11:45:18;;;;;;;2.75;1.27;;;;;;;;;;5018565;28;20204;-63
2022/07/23 11:47:44;;;;;;;4.03;1.15;;;;;;;;;;5015042;28;20196;-62
2022/07/23 11:50:11;;;;;;;4.93;1.55;;;;;;;;;;5016031;28;20192;-63
2022/07/23 11:52:37;;;;;;;5.05;1.38;;;;;;;;;;5013425;28;20196;-61
2022/07/23 11:55:08;;;;;;;6.60;1.40;;;;;;;;;;5031062;28;20929;-63
2022/07/23 11:57:35;;;;;;;5.57;1.42;;;;;;;;;;5014181;28;20207;-62
2022/07/23 12:00:07;;;;;;;2.90;1.35;;;;;;;;;;5026701;28;20191;-63
2022/07/23 12:02:40;;;;;;;3.15;1.33;;;;;;;;;;5012378;28;20179;-64
2022/07/23 12:05:09;;;;;;;3.20;1.40;;;;;;;;;;5030871;28;20253;-62
2022/07/23 12:07:49;;;;;;;4.07;1.50;;;;;;;;;;5015023;28;20198;-63
2022/07/23 12:10:21;;;;;;;2.67;1.20;;;;;;;;;;5030284;28;20239;-62
2022/07/23 12:12:49;;;;;;;3.72;1.40;;;;;;;;;;5028419;28;20187;-64
2022/07/23 12:15:16;;;;;;;4.15;1.35;;;;;;;;;;5016108;28;20761;-61
2022/07/23 12:17:45;;;;;;;5.55;1.40;;;;;;;;;;5012546;28;20258;-63
2022/07/23 12:20:13;;;;;;;3.30;1.33;;;;;;;;;;5027005;28;20187;-64
2022/07/23 12:22:40;;;;;;;5.50;1.30;;;;;;;;;;5023499;28;20199;-63
2022/07/23 12:25:07;;;;;;;2.53;1.38;;;;;;;;;;5047840;28;20249;-61
2022/07/23 12:27:33;;;;;;;3.83;1.40;;;;;;;;;;5047999;28;20180;-64
2022/07/23 12:30:00;;;;;;;5.47;1.55;;;;;;;;;;5030919;28;20192;-68
2022/07/23 12:32:27;;;;;;;8.00;1.50;;;;;;;;;;5032782;28;20180;-69
2022/07/23 12:35:04;;;;;;;2.90;1.25;;;;;;;;;;5030164;28;20746;-70
2022/07/23 12:37:32;;;;;;;6.30;1.50;;;;;;;;;;5033009;28;20321;-71
2022/07/23 12:39:58;;;;;;;1.95;1.33;;;;;;;;;;5031529;28;20179;-70
2022/07/23 12:42:25;;;;;;;7.75;1.58;;;;;;;;;;5033074;28;20183;-69
2022/07/23 12:45:07;;;;;;;4.38;1.88;;;;;;;;;;5030840;28;20230;-69
2022/07/23 12:47:53;;;;;;;2.45;1.30;;;;;;;;;;5030633;28;20180;-68
2022/07/23 12:50:38;;;;;;;4.55;1.25;;;;;;;;;;5032836;28;20191;-70
2022/07/23 12:53:09;;;;;;;4.53;1.67;;;;;;;;;;5031341;28;20184;-69
2022/07/23 12:55:36;;;;;;;6.05;1.60;;;;;;;;;;5048191;28;20238;-69
2022/07/23 12:58:05;;;;;;;2.30;1.50;;;;;;;;;;5048769;28;20640;-70
2022/07/23 13:00:32;;;;;;;3.42;1.58;;;;;;;;;;5036112;28;20631;-70
2022/07/23 13:02:58;;;;;;;6.22;1.50;;;;;;;;;;5034187;28;20608;-71
2022/07/23 13:05:24;;;;;;;4.60;1.40;;;;;;;;;;5035217;28;20188;-68
2022/07/23 13:07:50;;;;;;;2.78;1.60;;;;;;;;;;5034550;28;20218;-68
2022/07/23 13:10:17;;;;;;;2.60;1.55;;;;;;;;;;5034258;28;20215;-67
2022/07/23 13:12:43;;;;;;;5.03;1.77;;;;;;;;;;5035376;28;20279;-66
2022/07/23 13:15:09;;;;;;;2.83;1.25;;;;;;;;;;5035985;28;20223;-67
2022/07/23 13:17:36;;;;;;;2.88;1.30;;;;;;;;;;5050024;28;20208;-64
2022/07/23 13:20:02;;;;;;;4.97;1.30;;;;;;;;;;5035588;28;20389;-68
2022/07/23 13:22:28;;;;;;;2.67;1.20;;;;;;;;;;5036216;28;20632;-68
2022/07/23 13:24:55;;;;;;;2.80;1.38;;;;;;;;;;5034561;28;20196;-67
2022/07/23 13:27:21;;;;;;;2.78;1.20;;;;;;;;;;5035159;28;20195;-66
2022/07/23 13:29:47;;;;;;;2.10;1.30;;;;;;;;;;5035286;28;20651;-69
2022/07/23 13:32:13;;;;;;;2.58;1.33;;;;;;;;;;5036302;28;20176;-69
2022/07/23 13:34:40;;;;;;;2.38;1.25;;;;;;;;;;5033386;28;20266;-68
2022/07/23 13:37:06;;;;;;;3.97;1.20;;;;;;;;;;5037992;28;20184;-70
2022/07/23 13:39:32;;;;;;;2.90;1.27;;;;;;;;;;5035250;28;20186;-67
2022/07/23 13:41:58;;;;;;;3.13;1.30;;;;;;;;;;5037225;28;20648;-69
2022/07/23 13:44:25;;;;;;;11.18;1.60;;;;;;;;;;5034641;28;20655;-70
2022/07/23 13:46:51;;;;;;;8.57;1.33;;;;;;;;;;5028609;28;20185;-72
2022/07/23 13:49:17;;;;;;;4.32;1.30;;;;;;;;;;5031041;28;20183;-71
2022/07/23 13:51:43;;;;;;;4.15;1.40;;;;;;;;;;5033643;28;20218;-71
2022/07/23 13:54:09;;;;;;;2.58;1.30;;;;;;;;;;5033919;28;20200;-70
2022/07/23 13:56:36;;;;;;;2.25;1.20;;;;;;;;;;5049342;28;20207;-71
2022/07/23 13:59:02;;;;;;;3.42;1.48;;;;;;;;;;5048892;28;20188;-73
2022/07/23 14:01:28;;;;;;;3.42;1.30;;;;;;;;;;5035889;28;20184;-70
2022/07/23 14:03:54;;;;;;;6.47;1.30;;;;;;;;;;5033499;28;20179;-72
2022/07/23 14:06:20;;;;;;;5.03;1.30;;;;;;;;;;5035649;28;20180;-71
2022/07/23 14:08:47;;;;;;;2.10;1.10;;;;;;;;;;5028368;28;20900;-74
2022/07/23 14:11:13;;;;;;;4.15;2.10;;;;;;;;;;5049671;28;20283;-71
2022/07/23 14:13:39;;;;;;;5.40;1.45;;;;;;;;;;5048676;28;20184;-72
2022/07/23 14:16:05;;;;;;;5.25;1.30;;;;;;;;;;5035237;28;20203;-70
2022/07/23 14:18:32;;;;;;;4.03;1.30;;;;;;;;;;5033262;28;20267;-71
2022/07/23 14:20:58;;;;;;;5.32;1.48;;;;;;;;;;5034045;28;20294;-71
2022/07/23 14:23:24;;;;;;;5.15;1.25;;;;;;;;;;5033099;28;20615;-72
2022/07/23 14:25:50;;;;;;;2.85;1.20;;;;;;;;;;5035054;28;20190;-72
2022/07/23 14:28:16;;;;;;;3.92;1.38;;;;;;;;;;5033122;28;20188;-73
2022/07/23 14:30:43;;;;;;;4.88;1.40;;;;;;;;;;5034537;28;20248;-73
2022/07/23 14:33:09;;;;;;;4.90;1.70;;;;;;;;;;5033037;28;20195;-69
2022/07/23 14:35:36;;;;;;;4.18;1.60;;;;;;;;;;5034461;28;20232;-70
2022/07/23 14:38:02;;;;;;;2.67;1.30;;;;;;;;;;5032118;28;20207;-69
2022/07/23 14:40:29;;;;;;;6.43;1.45;;;;;;;;;;5034805;28;20180;-69
2022/07/23 14:42:55;;;;;;;5.05;1.20;;;;;;;;;;5048061;28;20299;-68
2022/07/23 14:45:21;;;;;;;5.07;1.42;;;;;;;;;;5034749;28;20278;-69
2022/07/23 14:47:47;;;;;;;2.75;1.50;;;;;;;;;;5032986;28;20180;-68
2022/07/23 14:50:14;;;;;;;5.07;1.60;;;;;;;;;;5034371;28;20220;-70
2022/07/23 14:52:40;;;;;;;2.75;1.40;;;;;;;;;;5031630;28;20183;-68
2022/07/23 14:55:07;;;;;;;3.67;1.58;;;;;;;;;;5033690;28;20307;-66
2022/07/23 14:57:34;;;;;;;2.50;1.42;;;;;;;;;;5049693;28;20270;-65